createdAt,value
2016-06-05T00:00:06.242Z,18.2
2016-06-05T00:00:16.258Z,18.2
2016-06-05T00:00:26.242Z,18.2
2016-06-05T00:00:36.258Z,18.2
2016-06-05T00:00:46.261Z,18.2
2016-06-05T00:00:56.230Z,18.2
2016-06-05T00:01:06.245Z,18.2
2016-06-05T00:01:16.245Z,18.2
2016-06-05T00:01:26.230Z,18.2
2016-06-05T00:01:36.245Z,18.3
2016-06-05T00:01:46.248Z,18.2
2016-06-05T00:01:56.217Z,18.2
2016-06-05T00:02:06.233Z,18.2
2016-06-05T00:02:16.248Z,18.2
2016-06-05T00:02:26.233Z,18.2
2016-06-05T00:02:36.233Z,18.2
2016-06-05T00:02:46.219Z,18.2
2016-06-05T00:02:56.219Z,18.2
2016-06-05T00:03:06.219Z,18.2
2016-06-05T00:03:16.203Z,18.2
2016-06-05T00:03:26.203Z,18.2
2016-06-05T00:03:36.203Z,18.2
2016-06-05T00:03:46.206Z,18.2
2016-06-05T00:03:56.206Z,18.2
2016-06-05T00:04:06.206Z,18.2
2016-06-05T00:04:16.206Z,18.2
2016-06-05T00:04:26.191Z,18.2
2016-06-05T00:04:36.206Z,18.2
2016-06-05T00:04:46.209Z,18.2
2016-06-05T00:04:56.194Z,18.1
2016-06-05T00:05:06.194Z,18.1
2016-06-05T00:05:16.178Z,18.1
2016-06-05T00:05:26.178Z,18.1
2016-06-05T00:05:36.178Z,18.1
2016-06-05T00:05:46.181Z,18.1
2016-06-05T00:05:56.181Z,18.1
2016-06-05T00:06:06.181Z,18
2016-06-05T00:06:16.181Z,18
2016-06-05T00:06:26.166Z,18
2016-06-05T00:06:36.166Z,18
2016-06-05T00:06:46.168Z,18
2016-06-05T00:06:56.168Z,18
2016-06-05T00:07:06.168Z,18
2016-06-05T00:07:16.152Z,18
2016-06-05T00:07:26.152Z,18
2016-06-05T00:07:36.152Z,18
2016-06-05T00:07:46.154Z,18
2016-06-05T00:07:56.154Z,18
2016-06-05T00:08:06.154Z,18
2016-06-05T00:08:16.138Z,18
2016-06-05T00:08:26.138Z,18
2016-06-05T00:08:36.138Z,18
2016-06-05T00:08:46.142Z,18
2016-06-05T00:08:56.142Z,17.9
2016-06-05T00:09:06.142Z,17.9
2016-06-05T00:09:16.142Z,17.9
2016-06-05T00:09:26.142Z,17.9
2016-06-05T00:09:36.127Z,17.9
2016-06-05T00:09:46.129Z,17.9
2016-06-05T00:09:56.129Z,17.9
2016-06-05T00:10:06.129Z,17.9
2016-06-05T00:10:16.113Z,17.9
2016-06-05T00:10:26.347Z,17.9
2016-06-05T00:10:36.129Z,17.9
2016-06-05T00:10:46.116Z,17.9
2016-06-05T00:10:56.116Z,17.9
2016-06-05T00:11:06.116Z,17.9
2016-06-05T00:11:16.116Z,17.9
2016-06-05T00:11:26.116Z,17.9
2016-06-05T00:11:36.100Z,17.9
2016-06-05T00:11:46.103Z,17.9
2016-06-05T00:11:56.103Z,17.9
2016-06-05T00:12:06.103Z,17.9
2016-06-05T00:12:16.088Z,17.9
2016-06-05T00:12:26.322Z,17.9
2016-06-05T00:12:36.088Z,17.9
2016-06-05T00:12:47.106Z,17.9
2016-06-05T00:12:56.122Z,17.9
2016-06-05T00:13:07.356Z,17.9
2016-06-05T00:13:16.091Z,17.9
2016-06-05T00:13:26.091Z,17.9
2016-06-05T00:13:36.403Z,17.9
2016-06-05T00:13:46.233Z,17.9
2016-06-05T00:13:56.077Z,17.9
2016-06-05T00:14:06.077Z,17.9
2016-06-05T00:14:16.077Z,17.9
2016-06-05T00:14:26.077Z,17.8
2016-06-05T00:14:36.062Z,17.8
2016-06-05T00:14:46.064Z,17.8
2016-06-05T00:14:55.907Z,17.8
2016-06-05T00:15:06.048Z,17.8
2016-06-05T00:15:16.064Z,17.8
2016-06-05T00:15:26.064Z,17.8
2016-06-05T00:15:36.048Z,17.7
2016-06-05T00:15:46.051Z,17.7
2016-06-05T00:15:56.067Z,17.8
2016-06-05T00:16:06.051Z,17.7
2016-06-05T00:16:16.051Z,17.8
2016-06-05T00:16:26.035Z,17.7
2016-06-05T00:16:36.035Z,17.8
2016-06-05T00:16:46.054Z,17.8
2016-06-05T00:16:56.679Z,17.8
2016-06-05T00:17:07.976Z,17.8
2016-06-05T00:17:19.616Z,17.8
2016-06-05T00:17:31.210Z,17.8
2016-06-05T00:17:42.695Z,17.7
2016-06-05T00:17:54.291Z,17.8
2016-06-05T00:18:04.416Z,17.8
2016-06-05T00:18:15.494Z,17.8
2016-06-05T00:18:27.198Z,17.8
2016-06-05T00:18:49.810Z,17.7
2016-06-05T00:19:00.872Z,17.7
2016-06-05T00:19:12.497Z,17.7
2016-06-05T00:19:23.669Z,17.8
2016-06-05T00:19:35.372Z,17.7
2016-06-05T00:19:47.013Z,17.8
2016-06-05T00:19:58.515Z,17.8
2016-06-05T00:20:10.187Z,17.8
2016-06-05T00:20:21.749Z,17.8
2016-06-05T00:20:33.265Z,17.8
2016-06-05T00:20:44.296Z,17.7
2016-06-05T00:20:53.659Z,17.7
2016-06-05T00:21:03.659Z,17.7
2016-06-05T00:21:13.659Z,17.7
2016-06-05T00:21:23.659Z,17.7
2016-06-05T00:21:33.643Z,17.7
2016-06-05T00:21:43.643Z,17.7
2016-06-05T00:21:53.646Z,17.7
2016-06-05T00:22:03.646Z,17.7
2016-06-05T00:22:13.646Z,17.6
2016-06-05T00:22:23.630Z,17.6
2016-06-05T00:22:33.630Z,17.6
2016-06-05T00:22:43.630Z,17.7
2016-06-05T00:22:53.632Z,17.7
2016-06-05T00:23:03.632Z,17.6
2016-06-05T00:23:13.632Z,17.6
2016-06-05T00:23:23.632Z,17.6
2016-06-05T00:23:33.617Z,17.6
2016-06-05T00:23:43.617Z,17.6
2016-06-05T00:23:53.620Z,17.6
2016-06-05T00:24:03.620Z,17.6
2016-06-05T00:24:13.604Z,17.7
2016-06-05T00:24:23.604Z,17.7
2016-06-05T00:24:33.620Z,17.7
2016-06-05T00:24:43.604Z,17.7
2016-06-05T00:24:53.607Z,17.7
2016-06-05T00:25:03.607Z,17.7
2016-06-05T00:25:13.607Z,17.7
2016-06-05T00:25:23.607Z,17.7
2016-06-05T00:25:33.592Z,17.7
2016-06-05T00:25:43.592Z,17.7
2016-06-05T00:25:53.595Z,17.7
2016-06-05T00:26:03.595Z,17.7
2016-06-05T00:26:13.595Z,17.7
2016-06-05T00:26:23.579Z,17.7
2016-06-05T00:26:33.595Z,17.7
2016-06-05T00:26:43.579Z,17.7
2016-06-05T00:26:53.581Z,17.7
2016-06-05T00:27:03.581Z,17.7
2016-06-05T00:27:13.581Z,17.7
2016-06-05T00:27:23.581Z,17.7
2016-06-05T00:27:34.409Z,17.7
2016-06-05T00:27:43.581Z,17.6
2016-06-05T00:27:53.912Z,17.6
2016-06-05T00:28:03.568Z,17.6
2016-06-05T00:28:13.428Z,17.6
2016-06-05T00:28:23.412Z,17.6
2016-06-05T00:28:33.412Z,17.6
2016-06-05T00:28:43.412Z,17.6
2016-06-05T00:28:53.555Z,17.5
2016-06-05T00:29:03.555Z,17.5
2016-06-05T00:29:13.570Z,17.5
2016-06-05T00:29:23.414Z,17.5
2016-06-05T00:29:33.539Z,17.5
2016-06-05T00:29:43.539Z,17.5
2016-06-05T00:29:53.542Z,17.5
2016-06-05T00:30:03.542Z,17.5
2016-06-05T00:30:13.542Z,17.5
2016-06-05T00:30:23.542Z,17.5
2016-06-05T00:30:33.526Z,17.5
2016-06-05T00:30:43.526Z,17.5
2016-06-05T00:30:53.529Z,17.5
2016-06-05T00:31:03.529Z,17.5
2016-06-05T00:31:13.529Z,17.5
2016-06-05T00:31:23.514Z,17.5
2016-06-05T00:31:33.514Z,17.5
2016-06-05T00:31:43.514Z,17.5
2016-06-05T00:31:53.516Z,17.5
2016-06-05T00:32:03.516Z,17.5
2016-06-05T00:32:13.516Z,17.5
2016-06-05T00:32:23.516Z,17.4
2016-06-05T00:32:33.516Z,17.4
2016-06-05T00:32:43.500Z,17.5
2016-06-05T00:32:53.503Z,17.4
2016-06-05T00:33:03.503Z,17.5
2016-06-05T00:33:13.503Z,17.4
2016-06-05T00:33:23.503Z,17.5
2016-06-05T00:33:33.503Z,17.5
2016-06-05T00:33:43.488Z,17.5
2016-06-05T00:33:53.491Z,17.5
2016-06-05T00:34:03.491Z,17.5
2016-06-05T00:34:13.491Z,17.5
2016-06-05T00:34:23.491Z,17.5
2016-06-05T00:34:33.491Z,17.5
2016-06-05T00:34:43.475Z,17.5
2016-06-05T00:34:53.477Z,17.5
2016-06-05T00:35:03.477Z,17.5
2016-06-05T00:35:13.477Z,17.5
2016-06-05T00:35:23.477Z,17.5
2016-06-05T00:35:33.461Z,17.5
2016-06-05T00:35:43.461Z,17.5
2016-06-05T00:35:53.464Z,17.5
2016-06-05T00:36:03.464Z,17.5
2016-06-05T00:36:13.464Z,17.5
2016-06-05T00:36:23.464Z,17.5
2016-06-05T00:36:33.449Z,17.5
2016-06-05T00:36:43.449Z,17.5
2016-06-05T00:36:53.452Z,17.5
2016-06-05T00:37:03.452Z,17.5
2016-06-05T00:37:13.452Z,17.4
2016-06-05T00:37:23.452Z,17.4
2016-06-05T00:37:33.436Z,17.4
2016-06-05T00:37:43.436Z,17.4
2016-06-05T00:37:53.455Z,17.5
2016-06-05T00:38:03.470Z,17.5
2016-06-05T00:38:13.439Z,17.5
2016-06-05T00:38:23.439Z,17.5
2016-06-05T00:38:33.423Z,17.4
2016-06-05T00:38:43.423Z,17.4
2016-06-05T00:38:53.441Z,17.4
2016-06-05T00:39:03.425Z,17.4
2016-06-05T00:39:13.425Z,17.4
2016-06-05T00:39:23.410Z,17.4
2016-06-05T00:39:33.425Z,17.4
2016-06-05T00:39:43.410Z,17.4
2016-06-05T00:39:53.428Z,17.4
2016-06-05T00:40:03.413Z,17.4
2016-06-05T00:40:13.413Z,17.4
2016-06-05T00:40:23.397Z,17.4
2016-06-05T00:40:33.413Z,17.4
2016-06-05T00:40:43.413Z,17.4
2016-06-05T00:40:53.400Z,17.4
2016-06-05T00:41:03.400Z,17.4
2016-06-05T00:41:13.400Z,17.4
2016-06-05T00:41:23.400Z,17.4
2016-06-05T00:41:33.400Z,17.5
2016-06-05T00:41:43.400Z,17.5
2016-06-05T00:41:53.388Z,17.5
2016-06-05T00:42:03.528Z,17.5
2016-06-05T00:42:13.403Z,17.5
2016-06-05T00:42:23.434Z,17.5
2016-06-05T00:42:33.466Z,17.5
2016-06-05T00:42:43.684Z,17.5
2016-06-05T00:42:53.436Z,17.5
2016-06-05T00:43:04.608Z,17.5
2016-06-05T00:43:13.811Z,17.5
2016-06-05T00:43:23.374Z,17.5
2016-06-05T00:43:33.374Z,17.5
2016-06-05T00:43:43.796Z,17.4
2016-06-05T00:43:53.360Z,17.5
2016-06-05T00:44:03.360Z,17.5
2016-06-05T00:44:13.360Z,17.5
2016-06-05T00:44:23.345Z,17.5
2016-06-05T00:44:33.360Z,17.5
2016-06-05T00:44:43.345Z,17.4
2016-06-05T00:44:53.349Z,17.5
2016-06-05T00:45:03.349Z,17.5
2016-06-05T00:45:13.349Z,17.5
2016-06-05T00:45:23.349Z,17.5
2016-06-05T00:45:33.349Z,17.5
2016-06-05T00:45:43.333Z,17.5
2016-06-05T00:45:53.335Z,17.5
2016-06-05T00:46:03.335Z,17.5
2016-06-05T00:46:13.335Z,17.5
2016-06-05T00:46:23.319Z,17.5
2016-06-05T00:46:33.335Z,17.5
2016-06-05T00:46:43.319Z,17.5
2016-06-05T00:46:53.321Z,17.5
2016-06-05T00:47:03.321Z,17.5
2016-06-05T00:47:13.321Z,17.6
2016-06-05T00:47:23.306Z,17.6
2016-06-05T00:47:33.306Z,17.5
2016-06-05T00:47:43.306Z,17.5
2016-06-05T00:47:53.309Z,17.5
2016-06-05T00:48:03.309Z,17.5
2016-06-05T00:48:13.309Z,17.5
2016-06-05T00:48:23.309Z,17.5
2016-06-05T00:48:33.293Z,17.5
2016-06-05T00:48:43.309Z,17.5
2016-06-05T00:48:53.312Z,17.5
2016-06-05T00:49:03.312Z,17.5
2016-06-05T00:49:13.296Z,17.6
2016-06-05T00:49:23.296Z,17.5
2016-06-05T00:49:33.281Z,17.5
2016-06-05T00:49:43.281Z,17.5
2016-06-05T00:49:53.299Z,17.5
2016-06-05T00:50:03.284Z,17.5
2016-06-05T00:50:13.268Z,17.5
2016-06-05T00:50:23.284Z,17.5
2016-06-05T00:50:33.268Z,17.5
2016-06-05T00:50:43.268Z,17.5
2016-06-05T00:50:53.271Z,17.5
2016-06-05T00:51:03.271Z,17.5
2016-06-05T00:51:13.287Z,17.5
2016-06-05T00:51:23.255Z,17.5
2016-06-05T00:51:33.255Z,17.5
2016-06-05T00:51:43.271Z,17.4
2016-06-05T00:51:53.257Z,17.4
2016-06-05T00:52:03.273Z,17.4
2016-06-05T00:52:13.273Z,17.4
2016-06-05T00:52:23.257Z,17.4
2016-06-05T00:52:33.242Z,17.4
2016-06-05T00:52:43.242Z,17.4
2016-06-05T00:52:53.245Z,17.4
2016-06-05T00:53:03.260Z,17.4
2016-06-05T00:53:13.229Z,17.4
2016-06-05T00:53:23.229Z,17.4
2016-06-05T00:53:33.245Z,17.4
2016-06-05T00:53:43.229Z,17.4
2016-06-05T00:53:53.232Z,17.4
2016-06-05T00:54:03.232Z,17.4
2016-06-05T00:54:13.232Z,17.4
2016-06-05T00:54:23.216Z,17.4
2016-06-05T00:54:33.216Z,17.4
2016-06-05T00:54:43.216Z,17.4
2016-06-05T00:54:53.234Z,17.4
2016-06-05T00:55:03.218Z,17.4
2016-06-05T00:55:13.203Z,17.4
2016-06-05T00:55:23.218Z,17.4
2016-06-05T00:55:33.203Z,17.4
2016-06-05T00:55:43.218Z,17.4
2016-06-05T00:55:53.206Z,17.4
2016-06-05T00:56:03.237Z,17.4
2016-06-05T00:56:13.206Z,17.4
2016-06-05T00:56:23.221Z,17.4
2016-06-05T00:56:33.221Z,17.4
2016-06-05T00:56:43.190Z,17.4
2016-06-05T00:56:53.193Z,17.4
2016-06-05T00:57:03.193Z,17.4
2016-06-05T00:57:13.209Z,17.4
2016-06-05T00:57:23.193Z,17.4
2016-06-05T00:57:33.037Z,17.4
2016-06-05T00:57:43.646Z,17.4
2016-06-05T00:57:53.462Z,17.4
2016-06-05T00:58:03.962Z,17.4
2016-06-05T00:58:13.571Z,17.4
2016-06-05T00:58:23.243Z,17.4
2016-06-05T00:58:33.165Z,17.4
2016-06-05T00:58:44.134Z,17.4
2016-06-05T00:58:55.698Z,17.3
2016-06-05T00:59:07.683Z,17.4
2016-06-05T00:59:18.714Z,17.3
2016-06-05T00:59:29.433Z,17.3
2016-06-05T00:59:41.073Z,17.3
2016-06-05T00:59:52.654Z,17.3
2016-06-05T01:00:04.170Z,17.3
2016-06-05T01:00:15.779Z,17.3
2016-06-05T01:00:27.420Z,17.3
2016-06-05T01:00:39.389Z,17.3
2016-06-05T01:00:51.017Z,17.3
2016-06-05T01:01:02.579Z,17.3
2016-06-05T01:01:11.376Z,17.3
2016-06-05T01:01:21.376Z,17.3
2016-06-05T01:01:31.376Z,17.3
2016-06-05T01:01:41.376Z,17.3
2016-06-05T01:01:51.378Z,17.3
2016-06-05T01:02:01.362Z,17.3
2016-06-05T01:02:11.362Z,17.3
2016-06-05T01:02:21.378Z,17.4
2016-06-05T01:02:31.362Z,17.3
2016-06-05T01:02:41.362Z,17.3
2016-06-05T01:02:51.364Z,17.3
2016-06-05T01:03:01.364Z,17.3
2016-06-05T01:03:11.349Z,17.3
2016-06-05T01:03:21.349Z,17.4
2016-06-05T01:03:31.349Z,17.4
2016-06-05T01:03:41.349Z,17.4
2016-06-05T01:03:51.353Z,17.4
2016-06-05T01:04:01.353Z,17.4
2016-06-05T01:04:11.337Z,17.4
2016-06-05T01:04:21.337Z,17.4
2016-06-05T01:04:31.337Z,17.4
2016-06-05T01:04:41.337Z,17.4
2016-06-05T01:04:51.339Z,17.4
2016-06-05T01:05:01.324Z,17.4
2016-06-05T01:05:11.324Z,17.4
2016-06-05T01:05:21.324Z,17.4
2016-06-05T01:05:31.324Z,17.4
2016-06-05T01:05:41.324Z,17.4
2016-06-05T01:05:51.327Z,17.3
2016-06-05T01:06:01.311Z,17.3
2016-06-05T01:06:11.311Z,17.3
2016-06-05T01:06:21.311Z,17.3
2016-06-05T01:06:31.311Z,17.3
2016-06-05T01:06:41.311Z,17.3
2016-06-05T01:06:51.298Z,17.2
2016-06-05T01:07:01.298Z,17.2
2016-06-05T01:07:11.298Z,17.2
2016-06-05T01:07:21.298Z,17.2
2016-06-05T01:07:31.298Z,17.2
2016-06-05T01:07:41.298Z,17.2
2016-06-05T01:07:51.300Z,17.2
2016-06-05T01:08:01.316Z,17.2
2016-06-05T01:08:11.300Z,17.2
2016-06-05T01:08:21.285Z,17.2
2016-06-05T01:08:31.285Z,17.2
2016-06-05T01:08:41.128Z,17.1
2016-06-05T01:08:51.288Z,17.1
2016-06-05T01:09:01.272Z,17.1
2016-06-05T01:09:11.272Z,17.2
2016-06-05T01:09:21.272Z,17.2
2016-06-05T01:09:31.272Z,17.1
2016-06-05T01:09:41.272Z,17.1
2016-06-05T01:09:51.275Z,17.1
2016-06-05T01:10:01.259Z,17.1
2016-06-05T01:10:11.259Z,17.1
2016-06-05T01:10:21.259Z,17.1
2016-06-05T01:10:31.259Z,17.1
2016-06-05T01:10:41.244Z,17.1
2016-06-05T01:10:51.262Z,17.1
2016-06-05T01:11:01.247Z,17.1
2016-06-05T01:11:11.247Z,17.1
2016-06-05T01:11:21.247Z,17.1
2016-06-05T01:11:31.247Z,17.1
2016-06-05T01:11:41.247Z,17.1
2016-06-05T01:11:51.249Z,17.1
2016-06-05T01:12:01.233Z,17.1
2016-06-05T01:12:11.233Z,17.1
2016-06-05T01:12:21.233Z,17.1
2016-06-05T01:12:32.030Z,17.1
2016-06-05T01:12:41.811Z,17.1
2016-06-05T01:12:51.924Z,17.1
2016-06-05T01:13:01.221Z,17.1
2016-06-05T01:13:11.236Z,17.1
2016-06-05T01:13:22.549Z,17.1
2016-06-05T01:13:31.221Z,17.1
2016-06-05T01:13:41.314Z,17.1
2016-06-05T01:13:51.223Z,17
2016-06-05T01:14:01.207Z,17
2016-06-05T01:14:11.207Z,17
2016-06-05T01:14:21.191Z,17
2016-06-05T01:14:31.207Z,17
2016-06-05T01:14:41.207Z,17
2016-06-05T01:14:51.194Z,17
2016-06-05T01:15:01.194Z,17
2016-06-05T01:15:11.194Z,17
2016-06-05T01:15:21.194Z,16.9
2016-06-05T01:15:31.194Z,16.9
2016-06-05T01:15:41.179Z,16.9
2016-06-05T01:15:51.182Z,16.9
2016-06-05T01:16:01.182Z,16.9
2016-06-05T01:16:11.182Z,16.9
2016-06-05T01:16:21.182Z,16.9
2016-06-05T01:16:31.182Z,16.9
2016-06-05T01:16:41.182Z,16.9
2016-06-05T01:16:51.168Z,16.9
2016-06-05T01:17:01.168Z,16.9
2016-06-05T01:17:11.168Z,16.9
2016-06-05T01:17:21.168Z,16.9
2016-06-05T01:17:31.152Z,16.9
2016-06-05T01:17:41.168Z,16.9
2016-06-05T01:17:51.155Z,16.9
2016-06-05T01:18:01.171Z,16.9
2016-06-05T01:18:11.155Z,16.9
2016-06-05T01:18:21.155Z,16.9
2016-06-05T01:18:31.140Z,16.9
2016-06-05T01:18:41.155Z,16.9
2016-06-05T01:18:51.143Z,16.9
2016-06-05T01:19:00.987Z,16.9
2016-06-05T01:19:11.143Z,16.9
2016-06-05T01:19:21.143Z,16.9
2016-06-05T01:19:31.143Z,16.8
2016-06-05T01:19:41.127Z,16.9
2016-06-05T01:19:51.130Z,16.9
2016-06-05T01:20:01.130Z,16.9
2016-06-05T01:20:11.130Z,16.9
2016-06-05T01:20:21.130Z,16.9
2016-06-05T01:20:31.130Z,16.9
2016-06-05T01:20:41.130Z,16.9
2016-06-05T01:20:51.118Z,17
2016-06-05T01:21:01.118Z,16.9
2016-06-05T01:21:11.118Z,17
2016-06-05T01:21:21.118Z,16.9
2016-06-05T01:21:31.118Z,17
2016-06-05T01:21:41.118Z,17
2016-06-05T01:21:51.120Z,16.9
2016-06-05T01:22:01.104Z,16.9
2016-06-05T01:22:11.104Z,17
2016-06-05T01:22:21.104Z,17
2016-06-05T01:22:31.104Z,17
2016-06-05T01:22:41.088Z,16.9
2016-06-05T01:22:51.091Z,16.9
2016-06-05T01:23:01.091Z,17
2016-06-05T01:23:11.107Z,16.9
2016-06-05T01:23:21.076Z,16.9
2016-06-05T01:23:31.091Z,16.9
2016-06-05T01:23:41.076Z,16.9
2016-06-05T01:23:51.078Z,16.9
2016-06-05T01:24:01.078Z,16.9
2016-06-05T01:24:11.078Z,16.9
2016-06-05T01:24:21.078Z,16.9
2016-06-05T01:24:31.062Z,16.9
2016-06-05T01:24:41.078Z,16.9
2016-06-05T01:24:51.065Z,16.9
2016-06-05T01:25:01.065Z,16.9
2016-06-05T01:25:11.065Z,16.9
2016-06-05T01:25:21.065Z,16.9
2016-06-05T01:25:31.065Z,16.9
2016-06-05T01:25:41.049Z,16.9
2016-06-05T01:25:51.052Z,16.9
2016-06-05T01:26:01.052Z,16.9
2016-06-05T01:26:11.068Z,16.9
2016-06-05T01:26:21.052Z,16.9
2016-06-05T01:26:31.052Z,16.9
2016-06-05T01:26:41.052Z,16.9
2016-06-05T01:26:51.039Z,16.9
2016-06-05T01:27:01.086Z,16.9
2016-06-05T01:27:11.039Z,16.9
2016-06-05T01:27:21.039Z,16.8
2016-06-05T01:27:31.039Z,16.8
2016-06-05T01:27:41.039Z,16.8
2016-06-05T01:27:50.886Z,16.8
2016-06-05T01:28:01.604Z,16.8
2016-06-05T01:28:10.886Z,16.8
2016-06-05T01:28:21.042Z,16.8
2016-06-05T01:28:31.026Z,16.8
2016-06-05T01:28:41.339Z,16.8
2016-06-05T01:28:51.014Z,16.8
2016-06-05T01:29:01.014Z,16.7
2016-06-05T01:29:11.014Z,16.7
2016-06-05T01:29:21.014Z,16.7
2016-06-05T01:29:31.014Z,16.7
2016-06-05T01:29:40.998Z,16.7
2016-06-05T01:29:51.000Z,16.7
2016-06-05T01:30:01.000Z,16.7
2016-06-05T01:30:11.000Z,16.7
2016-06-05T01:30:20.844Z,16.7
2016-06-05T01:30:31.000Z,16.7
2016-06-05T01:30:41.000Z,16.7
2016-06-05T01:30:50.988Z,16.7
2016-06-05T01:31:00.988Z,16.7
2016-06-05T01:31:10.988Z,16.7
2016-06-05T01:31:20.988Z,16.6
2016-06-05T01:31:30.973Z,16.6
2016-06-05T01:31:40.832Z,16.6
2016-06-05T01:31:50.975Z,16.6
2016-06-05T01:32:00.975Z,16.6
2016-06-05T01:32:10.818Z,16.6
2016-06-05T01:32:20.975Z,16.6
2016-06-05T01:32:30.975Z,16.6
2016-06-05T01:32:40.959Z,16.6
2016-06-05T01:32:50.977Z,16.6
2016-06-05T01:33:00.961Z,16.6
2016-06-05T01:33:10.961Z,16.6
2016-06-05T01:33:20.961Z,16.6
2016-06-05T01:33:30.961Z,16.6
2016-06-05T01:33:40.961Z,16.6
2016-06-05T01:33:50.945Z,16.6
2016-06-05T01:34:00.948Z,16.6
2016-06-05T01:34:10.948Z,16.6
2016-06-05T01:34:20.964Z,16.6
2016-06-05T01:34:30.948Z,16.6
2016-06-05T01:34:40.933Z,16.6
2016-06-05T01:34:50.933Z,16.6
2016-06-05T01:35:00.936Z,16.6
2016-06-05T01:35:10.936Z,16.6
2016-06-05T01:35:20.951Z,16.6
2016-06-05T01:35:30.936Z,16.6
2016-06-05T01:35:40.920Z,16.6
2016-06-05T01:35:50.920Z,16.6
2016-06-05T01:36:00.923Z,16.6
2016-06-05T01:36:10.923Z,16.6
2016-06-05T01:36:20.908Z,16.6
2016-06-05T01:36:30.908Z,16.6
2016-06-05T01:36:40.908Z,16.6
2016-06-05T01:36:50.908Z,16.6
2016-06-05T01:37:00.911Z,16.6
2016-06-05T01:37:10.926Z,16.6
2016-06-05T01:37:20.911Z,16.6
2016-06-05T01:37:30.895Z,16.6
2016-06-05T01:37:40.895Z,16.6
2016-06-05T01:37:50.895Z,16.6
2016-06-05T01:38:00.897Z,16.6
2016-06-05T01:38:10.897Z,16.6
2016-06-05T01:38:20.897Z,16.6
2016-06-05T01:38:30.897Z,16.6
2016-06-05T01:38:40.881Z,16.6
2016-06-05T01:38:50.881Z,16.6
2016-06-05T01:39:00.883Z,16.6
2016-06-05T01:39:10.883Z,16.6
2016-06-05T01:39:20.868Z,16.6
2016-06-05T01:39:30.868Z,16.6
2016-06-05T01:39:40.868Z,16.6
2016-06-05T01:39:50.868Z,16.6
2016-06-05T01:40:00.872Z,16.6
2016-06-05T01:40:10.872Z,16.6
2016-06-05T01:40:20.872Z,16.6
2016-06-05T01:40:30.872Z,16.6
2016-06-05T01:40:40.856Z,16.6
2016-06-05T01:40:50.856Z,16.6
2016-06-05T01:41:00.858Z,16.6
2016-06-05T01:41:10.842Z,16.6
2016-06-05T01:41:20.858Z,16.6
2016-06-05T01:41:30.842Z,16.6
2016-06-05T01:41:40.842Z,16.6
2016-06-05T01:41:50.842Z,16.6
2016-06-05T01:42:00.845Z,16.6
2016-06-05T01:42:10.845Z,16.6
2016-06-05T01:42:20.830Z,16.6
2016-06-05T01:42:31.189Z,16.6
2016-06-05T01:42:40.689Z,16.6
2016-06-05T01:42:50.924Z,16.6
2016-06-05T01:43:00.864Z,16.6
2016-06-05T01:43:10.833Z,16.6
2016-06-05T01:43:21.645Z,16.6
2016-06-05T01:43:30.817Z,16.6
2016-06-05T01:43:40.817Z,16.6
2016-06-05T01:43:50.817Z,16.6
2016-06-05T01:44:00.820Z,16.6
2016-06-05T01:44:10.820Z,16.6
2016-06-05T01:44:20.820Z,16.6
2016-06-05T01:44:30.805Z,16.6
2016-06-05T01:44:40.805Z,16.6
2016-06-05T01:44:50.805Z,16.6
2016-06-05T01:45:00.822Z,16.6
2016-06-05T01:45:10.791Z,16.6
2016-06-05T01:45:20.791Z,16.6
2016-06-05T01:45:30.791Z,16.6
2016-06-05T01:45:40.791Z,16.5
2016-06-05T01:45:50.791Z,16.5
2016-06-05T01:46:00.793Z,16.5
2016-06-05T01:46:10.777Z,16.5
2016-06-05T01:46:20.777Z,16.5
2016-06-05T01:46:30.777Z,16.5
2016-06-05T01:46:40.777Z,16.5
2016-06-05T01:46:50.777Z,16.5
2016-06-05T01:47:00.780Z,16.5
2016-06-05T01:47:10.765Z,16.5
2016-06-05T01:47:20.765Z,16.5
2016-06-05T01:47:30.765Z,16.6
2016-06-05T01:47:40.765Z,16.5
2016-06-05T01:47:50.765Z,16.5
2016-06-05T01:48:00.783Z,16.5
2016-06-05T01:48:10.768Z,16.5
2016-06-05T01:48:20.752Z,16.5
2016-06-05T01:48:30.752Z,16.5
2016-06-05T01:48:40.752Z,16.5
2016-06-05T01:48:50.752Z,16.5
2016-06-05T01:49:00.754Z,16.4
2016-06-05T01:49:10.754Z,16.5
2016-06-05T01:49:20.738Z,16.4
2016-06-05T01:49:30.738Z,16.4
2016-06-05T01:49:40.738Z,16.4
2016-06-05T01:49:50.723Z,16.4
2016-06-05T01:50:00.742Z,16.4
2016-06-05T01:50:10.727Z,16.4
2016-06-05T01:50:20.727Z,16.4
2016-06-05T01:50:30.727Z,16.4
2016-06-05T01:50:40.727Z,16.4
2016-06-05T01:50:50.727Z,16.4
2016-06-05T01:51:00.729Z,16.4
2016-06-05T01:51:10.729Z,16.4
2016-06-05T01:51:20.713Z,16.4
2016-06-05T01:51:30.729Z,16.4
2016-06-05T01:51:40.713Z,16.4
2016-06-05T01:51:50.713Z,16.4
2016-06-05T01:52:00.701Z,16.4
2016-06-05T01:52:10.716Z,16.3
2016-06-05T01:52:20.701Z,16.3
2016-06-05T01:52:30.701Z,16.3
2016-06-05T01:52:40.701Z,16.3
2016-06-05T01:52:50.701Z,16.3
2016-06-05T01:53:00.687Z,16.3
2016-06-05T01:53:10.703Z,16.3
2016-06-05T01:53:20.687Z,16.3
2016-06-05T01:53:30.687Z,16.3
2016-06-05T01:53:40.687Z,16.3
2016-06-05T01:53:50.703Z,16.3
2016-06-05T01:54:00.690Z,16.3
2016-06-05T01:54:10.674Z,16.3
2016-06-05T01:54:20.674Z,16.3
2016-06-05T01:54:30.674Z,16.3
2016-06-05T01:54:40.674Z,16.3
2016-06-05T01:54:50.674Z,16.3
2016-06-05T01:55:00.677Z,16.3
2016-06-05T01:55:10.662Z,16.3
2016-06-05T01:55:20.662Z,16.3
2016-06-05T01:55:30.662Z,16.3
2016-06-05T01:55:40.677Z,16.3
2016-06-05T01:55:50.646Z,16.3
2016-06-05T01:56:00.649Z,16.3
2016-06-05T01:56:10.665Z,16.3
2016-06-05T01:56:20.665Z,16.3
2016-06-05T01:56:30.649Z,16.3
2016-06-05T01:56:40.649Z,16.3
2016-06-05T01:56:50.649Z,16.3
2016-06-05T01:57:00.651Z,16.3
2016-06-05T01:57:10.635Z,16.3
2016-06-05T01:57:20.635Z,16.3
2016-06-05T01:57:30.917Z,16.3
2016-06-05T01:57:41.089Z,16.3
2016-06-05T01:57:50.635Z,16.3
2016-06-05T01:58:00.809Z,16.3
2016-06-05T01:58:10.934Z,16.3
2016-06-05T01:58:20.637Z,16.3
2016-06-05T01:58:30.950Z,16.3
2016-06-05T01:58:40.622Z,16.3
2016-06-05T01:58:50.700Z,16.3
2016-06-05T01:59:00.609Z,16.3
2016-06-05T01:59:10.609Z,16.3
2016-06-05T01:59:20.609Z,16.3
2016-06-05T01:59:30.609Z,16.3
2016-06-05T01:59:40.609Z,16.3
2016-06-05T01:59:50.609Z,16.3
2016-06-05T02:00:00.613Z,16.3
2016-06-05T02:00:10.457Z,16.3
2016-06-05T02:00:20.598Z,16.3
2016-06-05T02:00:30.598Z,16.3
2016-06-05T02:00:40.598Z,16.3
2016-06-05T02:00:50.582Z,16.3
2016-06-05T02:01:00.600Z,16.3
2016-06-05T02:01:10.584Z,16.3
2016-06-05T02:01:20.584Z,16.3
2016-06-05T02:01:30.584Z,16.3
2016-06-05T02:01:40.600Z,16.3
2016-06-05T02:01:50.568Z,16.3
2016-06-05T02:02:00.571Z,16.3
2016-06-05T02:02:10.571Z,16.3
2016-06-05T02:02:20.571Z,16.3
2016-06-05T02:02:30.571Z,16.3
2016-06-05T02:02:40.571Z,16.3
2016-06-05T02:02:50.431Z,16.3
2016-06-05T02:03:00.559Z,16.3
2016-06-05T02:03:10.574Z,16.3
2016-06-05T02:03:20.559Z,16.4
2016-06-05T02:03:30.559Z,16.4
2016-06-05T02:03:40.559Z,16.4
2016-06-05T02:03:50.543Z,16.4
2016-06-05T02:04:00.561Z,16.4
2016-06-05T02:04:10.545Z,16.4
2016-06-05T02:04:20.561Z,16.4
2016-06-05T02:04:30.545Z,16.4
2016-06-05T02:04:40.545Z,16.4
2016-06-05T02:04:50.545Z,16.4
2016-06-05T02:05:00.548Z,16.4
2016-06-05T02:05:10.532Z,16.4
2016-06-05T02:05:20.532Z,16.4
2016-06-05T02:05:30.532Z,16.4
2016-06-05T02:05:40.517Z,16.4
2016-06-05T02:05:50.532Z,16.4
2016-06-05T02:06:00.519Z,16.4
2016-06-05T02:06:10.519Z,16.4
2016-06-05T02:06:20.519Z,16.4
2016-06-05T02:06:30.519Z,16.4
2016-06-05T02:06:40.519Z,16.4
2016-06-05T02:06:50.503Z,16.4
2016-06-05T02:07:00.506Z,16.4
2016-06-05T02:07:10.506Z,16.4
2016-06-05T02:07:20.506Z,16.4
2016-06-05T02:07:30.491Z,16.4
2016-06-05T02:07:40.506Z,16.4
2016-06-05T02:07:50.491Z,16.4
2016-06-05T02:08:00.494Z,16.4
2016-06-05T02:08:10.494Z,16.4
2016-06-05T02:08:20.494Z,16.4
2016-06-05T02:08:30.494Z,16.4
2016-06-05T02:08:40.494Z,16.4
2016-06-05T02:08:50.478Z,16.4
2016-06-05T02:09:00.480Z,16.4
2016-06-05T02:09:10.480Z,16.4
2016-06-05T02:09:20.480Z,16.4
2016-06-05T02:09:30.480Z,16.4
2016-06-05T02:09:40.464Z,16.4
2016-06-05T02:09:50.464Z,16.4
2016-06-05T02:10:00.467Z,16.4
2016-06-05T02:10:10.467Z,16.3
2016-06-05T02:10:20.467Z,16.4
2016-06-05T02:10:30.467Z,16.3
2016-06-05T02:10:40.452Z,16.4
2016-06-05T02:10:50.452Z,16.4
2016-06-05T02:11:00.455Z,16.4
2016-06-05T02:11:10.455Z,16.4
2016-06-05T02:11:20.455Z,16.4
2016-06-05T02:11:30.455Z,16.4
2016-06-05T02:11:40.439Z,16.4
2016-06-05T02:11:50.455Z,16.4
2016-06-05T02:12:00.442Z,16.4
2016-06-05T02:12:10.442Z,16.4
2016-06-05T02:12:20.458Z,16.3
2016-06-05T02:12:30.301Z,16.3
2016-06-05T02:12:40.645Z,16.3
2016-06-05T02:12:50.801Z,16.3
2016-06-05T02:13:00.710Z,16.3
2016-06-05T02:13:10.272Z,16.3
2016-06-05T02:13:20.428Z,16.3
2016-06-05T02:13:30.835Z,16.3
2016-06-05T02:13:41.132Z,16.3
2016-06-05T02:13:50.647Z,16.2
2016-06-05T02:14:00.416Z,16.2
2016-06-05T02:14:10.416Z,16.2
2016-06-05T02:14:20.416Z,16.2